Time;durP1;ratioP1;P1;durP2;ratioP2;P2;SDS_P1;SDS_P2;PMS_P1;PMS_P2;Temp;Humidity;BMP_temperature;BMP_pressure;BME280_temperature;BME280_humidity;BME280_pressure;Samples;Min_cycle;Max_cycle;Signal;HPM_P1;HPM_P2
2022/02/09 00:00:05;;;;;;;13.27;7.00;;;22.00;47.80;;;;;;4994035;28;20030;-72
2022/02/09 00:10:24;;;;;;;12.63;5.93;;;21.90;47.90;;;;;;4995497;28;20038;-73
2022/02/09 00:13:04;;;;;;;12.63;6.18;;;21.90;47.90;;;;;;4995916;28;20741;-71
2022/02/09 00:15:49;;;;;;;11.35;6.10;;;21.90;47.90;;;;;;4998016;28;20088;-73
2022/02/09 00:42:01;;;;;;;10.60;5.55;;;21.70;48.00;;;;;;5000055;28;20107;-69
2022/02/09 00:45:00;;;;;;;10.95;5.22;;;21.70;48.00;;;;;;4996967;28;20359;-71
2022/02/09 01:39:09;;;;;;;8.00;4.70;;;21.40;48.30;;;;;;4999078;28;20036;-70
2022/02/09 01:57:38;;;;;;;8.10;4.13;;;21.30;48.40;;;;;;4998359;28;20053;-73
2022/02/09 02:00:07;;;;;;;7.53;4.10;;;21.30;48.40;;;;;;4997466;28;20654;-72
2022/02/09 02:02:33;;;;;;;;;;;21.30;48.40;;;;;;4997189;28;20500;-72
2022/02/09 02:04:59;;;;;;;7.95;3.80;;;21.30;48.40;;;;;;4997367;28;19920;-71
2022/02/09 02:07:46;;;;;;;7.72;4.10;;;21.30;48.40;;;;;;4999392;28;20030;-71
2022/02/09 02:10:13;;;;;;;7.93;3.63;;;21.30;48.40;;;;;;4998519;28;20046;-71
2022/02/09 02:13:14;;;;;;;7.20;4.22;;;21.30;48.40;;;;;;4997381;28;20199;-71
2022/02/09 02:18:08;;;;;;;6.57;3.58;;;21.30;48.40;;;;;;4996544;28;20036;-68
2022/02/09 02:20:46;;;;;;;7.00;3.80;;;21.20;48.40;;;;;;4996837;28;20034;-70
2022/02/09 02:34:44;;;;;;;8.00;4.07;;;21.20;48.40;;;;;;4995555;28;20506;-69
2022/02/09 02:39:18;;;;;;;6.57;3.90;;;21.20;48.50;;;;;;4995559;28;20058;-70
2022/02/09 02:47:28;;;;;;;7.18;4.10;;;21.10;48.50;;;;;;4995805;28;20022;-70
2022/02/09 03:14:55;;;;;;;6.07;2.97;;;21.00;48.50;;;;;;4993561;28;20113;-69
2022/02/09 03:17:17;;;;;;;5.10;2.97;;;21.00;48.60;;;;;;4995243;28;20419;-70
2022/02/09 03:51:37;;;;;;;5.65;3.08;;;20.90;48.60;;;;;;5000495;28;20171;-71
2022/02/09 03:56:53;;;;;;;5.90;3.30;;;20.90;48.70;;;;;;5000950;28;20611;-69
2022/02/09 03:59:17;;;;;;;4.88;3.05;;;20.90;48.70;;;;;;4998877;28;20034;-68
2022/02/09 04:01:44;;;;;;;5.22;2.90;;;20.90;48.70;;;;;;4996597;28;20528;-68
2022/02/09 04:04:10;;;;;;;5.18;3.25;;;20.90;48.70;;;;;;4999412;28;20096;-71
2022/02/09 04:06:37;;;;;;;5.55;2.80;;;20.90;48.70;;;;;;4999251;28;20038;-70
2022/02/09 04:09:06;;;;;;;5.90;3.03;;;20.80;48.70;;;;;;4999816;28;20034;-70
2022/02/09 04:11:39;;;;;;;;;;;20.90;48.70;;;;;;4999844;28;20018;-72
2022/02/09 04:14:29;;;;;;;5.57;3.00;;;20.90;48.70;;;;;;4998086;28;19967;-72
2022/02/09 04:17:06;;;;;;;5.95;3.00;;;20.80;48.60;;;;;;4995642;28;20093;-72
2022/02/09 04:54:35;;;;;;;5.28;2.67;;;20.80;48.70;;;;;;4997804;28;20526;-71
2022/02/09 04:57:06;;;;;;;4.70;2.70;;;20.70;48.70;;;;;;4998951;28;20034;-68
2022/02/09 04:59:50;;;;;;;3.88;2.28;;;20.70;48.70;;;;;;4998390;28;20487;-72
2022/02/09 05:02:45;;;;;;;4.53;2.60;;;20.70;48.70;;;;;;4993945;28;20038;-70
2022/02/09 05:26:48;;;;;;;4.15;2.33;;;20.70;48.80;;;;;;4997803;28;20114;-71
2022/02/09 05:29:13;;;;;;;4.75;2.50;;;20.70;48.80;;;;;;4997746;28;20026;-70
2022/02/09 05:31:39;;;;;;;4.93;2.65;;;20.70;48.80;;;;;;4995671;28;20614;-70
2022/02/09 05:34:07;;;;;;;3.95;2.20;;;20.70;48.80;;;;;;4998085;28;20025;-70
2022/02/09 05:36:32;;;;;;;4.38;2.45;;;20.60;48.80;;;;;;4997610;28;20037;-71
2022/02/09 05:38:58;;;;;;;4.32;2.55;;;20.60;48.80;;;;;;5009051;28;20021;-70
2022/02/09 05:41:24;;;;;;;4.07;2.50;;;20.70;48.80;;;;;;5012929;28;20470;-68
2022/02/09 05:43:50;;;;;;;3.75;2.17;;;20.60;48.80;;;;;;4999349;28;20030;-70
2022/02/09 05:59:05;;;;;;;3.75;2.10;;;20.60;48.80;;;;;;4994003;28;20041;-70
2022/02/09 06:01:31;;;;;;;3.60;2.10;;;20.60;48.80;;;;;;5010405;28;20422;-71
2022/02/09 06:03:56;;;;;;;3.95;2.15;;;20.60;48.80;;;;;;4995104;28;20125;-70
2022/02/09 06:06:22;;;;;;;3.70;2.15;;;20.60;48.80;;;;;;5011932;28;20057;-70
2022/02/09 06:08:48;;;;;;;4.00;2.30;;;20.60;48.80;;;;;;4995154;28;20453;-70
2022/02/09 06:21:47;;;;;;;5.47;2.08;;;20.50;49.00;;;;;;4998595;28;20648;-70
2022/02/09 06:24:12;;;;;;;4.32;2.00;;;20.50;49.20;;;;;;4998613;28;20113;-70
2022/02/09 06:26:38;;;;;;;3.63;1.90;;;20.50;49.30;;;;;;4997551;28;20022;-70
2022/02/09 06:29:04;;;;;;;3.42;1.90;;;20.50;49.30;;;;;;4995691;28;20037;-70
2022/02/09 06:31:31;;;;;;;3.15;1.77;;;20.50;49.40;;;;;;4995855;28;20034;-70
2022/02/09 06:33:57;;;;;;;4.32;1.90;;;20.50;49.40;;;;;;5010695;28;20062;-72
2022/02/09 06:36:25;;;;;;;4.30;2.13;;;20.50;49.50;;;;;;4995938;28;20116;-71
2022/02/09 06:38:51;;;;;;;3.45;1.58;;;20.50;49.50;;;;;;4997233;28;20018;-70
2022/02/09 06:41:16;;;;;;;3.60;1.73;;;20.50;49.50;;;;;;4997797;28;20030;-68
2022/02/09 06:43:42;;;;;;;5.60;2.38;;;20.50;49.60;;;;;;5005297;28;20037;-69
2022/02/09 06:46:07;;;;;;;5.28;2.30;;;20.70;50.50;;;;;;4994337;28;20066;-64
2022/02/09 06:48:34;;;;;;;4.03;2.30;;;21.00;50.10;;;;;;4992484;28;20037;-67
2022/02/09 06:51:10;;;;;;;4.78;2.30;;;21.40;49.10;;;;;;5011008;28;20066;-65
2022/02/09 06:53:44;;;;;;;4.70;1.90;;;21.80;48.40;;;;;;5009090;28;20046;-65
2022/02/09 06:56:13;;;;;;;5.25;2.15;;;22.10;47.80;;;;;;4995145;28;20664;-67
2022/02/09 06:58:45;;;;;;;4.15;2.20;;;22.40;47.20;;;;;;4992997;28;20037;-65
2022/02/09 07:01:11;;;;;;;4.05;2.10;;;22.60;46.80;;;;;;5009404;28;20498;-68
2022/02/09 07:03:37;;;;;;;3.75;2.00;;;22.90;46.50;;;;;;4993959;28;20034;-69
2022/02/09 07:06:04;;;;;;;3.45;1.70;;;23.00;46.20;;;;;;4997714;28;20056;-70
2022/02/09 07:08:29;;;;;;;2.65;1.40;;;23.10;46.00;;;;;;4997048;28;20100;-65
2022/02/09 07:10:55;;;;;;;2.75;1.30;;;22.90;46.30;;;;;;4996946;28;20356;-68
2022/02/09 07:13:21;;;;;;;2.90;1.52;;;22.60;46.70;;;;;;4994259;28;20308;-67
2022/02/09 07:15:51;;;;;;;2.63;1.30;;;22.50;47.20;;;;;;4995074;28;20032;-68
2022/02/09 07:18:17;;;;;;;2.78;1.60;;;22.30;47.30;;;;;;4994485;28;20146;-64
2022/02/09 07:28:31;;;;;;;2.75;1.30;;;22.00;47.80;;;;;;4994841;28;20677;-69
2022/02/09 07:30:57;;;;;;;2.58;1.50;;;22.00;47.80;;;;;;4992664;28;20489;-64
2022/02/09 07:33:23;;;;;;;2.58;1.40;;;22.00;47.80;;;;;;4995741;28;20037;-68
2022/02/09 07:35:48;;;;;;;2.53;1.48;;;22.00;47.90;;;;;;4998568;28;20045;-71
2022/02/09 07:38:14;;;;;;;2.30;1.42;;;22.00;48.00;;;;;;4997409;28;20025;-68
2022/02/09 07:40:42;;;;;;;2.65;1.40;;;22.00;48.10;;;;;;4997303;28;20355;-66
2022/02/09 07:43:14;;;;;;;2.42;1.38;;;22.00;48.50;;;;;;4994405;28;20088;-69
2022/02/09 07:46:00;;;;;;;2.90;1.55;;;22.00;48.30;;;;;;4993873;28;20070;-65
2022/02/09 07:53:46;;;;;;;3.17;1.20;;;22.00;48.20;;;;;;4993897;28;20041;-69
2022/02/09 07:56:11;;;;;;;2.58;1.45;;;22.00;48.30;;;;;;4996160;28;20406;-68
2022/02/09 07:58:37;;;;;;;2.90;1.50;;;22.10;48.30;;;;;;5009228;28;20034;-68
2022/02/09 08:01:03;;;;;;;3.33;1.40;;;22.10;49.00;;;;;;5009399;28;20085;-64
2022/02/09 08:03:28;;;;;;;2.90;1.60;;;22.10;48.40;;;;;;4995094;28;20030;-69
2022/02/09 08:05:54;;;;;;;2.75;1.40;;;22.00;48.30;;;;;;4997516;28;20053;-69
2022/02/09 08:08:20;;;;;;;3.65;1.45;;;22.10;48.30;;;;;;4997633;28;20117;-68
2022/02/09 08:10:53;;;;;;;2.42;1.30;;;22.00;48.30;;;;;;4995701;28;20110;-67
2022/02/09 08:24:49;;;;;;;3.47;1.33;;;22.10;48.20;;;;;;4995610;28;20363;-70
2022/02/09 08:29:49;;;;;;;2.72;1.40;;;22.10;48.10;;;;;;4995009;28;20065;-64
2022/02/09 08:34:57;;;;;;;2.78;1.50;;;22.20;48.60;;;;;;4993481;28;20030;-68
2022/02/09 08:37:23;;;;;;;2.40;1.45;;;22.30;48.30;;;;;;5000381;28;20033;-67
2022/02/09 08:39:50;;;;;;;2.30;1.25;;;22.20;48.30;;;;;;4998857;28;20062;-65
2022/02/09 08:42:17;;;;;;;2.13;1.27;;;22.30;48.20;;;;;;4997360;28;20118;-67
2022/02/09 08:44:43;;;;;;;2.55;1.40;;;22.30;48.10;;;;;;4997167;28;20129;-68
2022/02/09 08:47:09;;;;;;;2.97;1.40;;;22.30;48.30;;;;;;4998607;28;20101;-68
2022/02/09 08:49:34;;;;;;;2.55;1.40;;;22.30;48.20;;;;;;4998570;28;20390;-68
2022/02/09 08:52:00;;;;;;;2.42;1.40;;;22.30;48.50;;;;;;4999155;28;20038;-68
2022/02/09 08:54:27;;;;;;;3.30;1.48;;;22.30;48.30;;;;;;5004014;28;20053;-66
2022/02/09 08:56:54;;;;;;;1.95;1.15;;;22.40;48.10;;;;;;5000031;28;20029;-68
2022/02/09 08:59:27;;;;;;;1.63;1.20;;;22.40;48.20;;;;;;4998674;28;20030;-67
2022/02/09 09:02:01;;;;;;;2.45;1.33;;;22.40;47.90;;;;;;4997667;28;20084;-66
2022/02/09 09:04:38;;;;;;;3.08;1.40;;;22.40;47.90;;;;;;4998591;28;20042;-67
2022/02/09 09:07:13;;;;;;;2.25;1.30;;;22.40;48.60;;;;;;5013333;28;20466;-64
2022/02/09 09:10:47;;;;;;;2.83;1.30;;;22.50;48.70;;;;;;4998539;28;20029;-70
2022/02/09 10:02:08;;;;;;;2.58;1.17;;;23.00;48.70;;;;;;5010716;28;20034;-68
2022/02/09 10:05:06;;;;;;;1.73;1.00;;;23.00;48.80;;;;;;4997914;28;20532;-68
2022/02/09 10:33:05;;;;;;;1.75;1.00;;;23.60;49.90;;;;;;4996049;28;20407;-69
2022/02/09 10:35:48;;;;;;;2.38;1.40;;;23.60;49.70;;;;;;4995270;28;20072;-70
2022/02/09 10:38:33;;;;;;;2.80;1.52;;;23.60;47.90;;;;;;4997178;28;20113;-68
2022/02/09 10:41:23;;;;;;;2.53;1.40;;;23.50;47.10;;;;;;5000778;28;20093;-68
2022/02/09 10:43:49;;;;;;;;;;;23.50;47.20;;;;;;5000731;28;20072;-66
2022/02/09 10:46:16;;;;;;;1.85;1.15;;;23.50;47.40;;;;;;4999636;28;19913;-68
2022/02/09 10:48:58;;;;;;;2.35;1.20;;;23.50;47.60;;;;;;4996958;28;20088;-67
2022/02/09 10:51:45;;;;;;;2.17;1.20;;;23.50;47.50;;;;;;5002023;28;20064;-68
2022/02/09 10:54:14;;;;;;;2.60;1.30;;;23.50;47.50;;;;;;5003752;28;20026;-70
2022/02/09 10:57:04;;;;;;;1.50;1.00;;;23.50;47.60;;;;;;5002150;28;20085;-69
2022/02/09 10:59:37;;;;;;;1.50;0.98;;;23.50;47.40;;;;;;4995790;28;20786;-68
2022/02/09 11:02:09;;;;;;;2.03;1.30;;;23.50;47.60;;;;;;4999167;28;20038;-68
2022/02/09 11:04:35;;;;;;;2.28;1.20;;;23.60;47.70;;;;;;5001153;28;20022;-70
2022/02/09 11:07:02;;;;;;;2.03;1.08;;;23.60;47.70;;;;;;4999218;28;20490;-69
2022/02/09 11:09:29;;;;;;;1.95;1.20;;;23.60;47.90;;;;;;5012368;28;20129;-70
2022/02/09 11:11:55;;;;;;;2.00;1.10;;;23.70;48.30;;;;;;4998869;28;20083;-67
2022/02/09 11:14:25;;;;;;;1.30;0.90;;;23.70;48.60;;;;;;5010143;28;20029;-66
2022/02/09 11:17:03;;;;;;;1.63;1.10;;;23.70;48.10;;;;;;4995257;28;20038;-68
2022/02/09 11:19:38;;;;;;;1.40;0.90;;;23.70;48.20;;;;;;5012752;28;20021;-63
2022/02/09 11:22:17;;;;;;;2.10;1.10;;;23.70;48.10;;;;;;4997082;28;20129;-68
2022/02/09 11:24:46;;;;;;;3.67;1.40;;;23.70;47.30;;;;;;4996432;28;20137;-68
2022/02/09 11:27:19;;;;;;;2.42;1.40;;;23.70;46.60;;;;;;4993318;28;20038;-67
2022/02/09 11:29:55;;;;;;;2.97;1.60;;;23.70;46.30;;;;;;5005837;28;20089;-68
2022/02/09 11:34:58;;;;;;;2.97;1.50;;;23.60;46.10;;;;;;4993001;28;20035;-68
2022/02/09 11:38:29;;;;;;;2.30;1.42;;;23.60;46.00;;;;;;4991556;28;20502;-67
2022/02/09 12:10:16;;;;;;;2.60;1.70;;;23.40;38.20;;;;;;4998283;28;20037;-68
2022/02/09 12:12:45;;;;;;;2.88;1.40;;;23.30;38.40;;;;;;4998930;28;20075;-66
2022/02/09 12:15:28;;;;;;;2.90;1.60;;;23.30;37.50;;;;;;4994978;28;20027;-69
2022/02/09 12:18:13;;;;;;;2.58;1.50;;;23.20;37.80;;;;;;4998310;28;20750;-67
2022/02/09 12:20:47;;;;;;;3.25;1.30;;;23.20;38.00;;;;;;5003383;28;20034;-71
2022/02/09 12:25:47;;;;;;;2.83;1.30;;;23.20;38.30;;;;;;4998992;28;20057;-69
2022/02/09 12:28:20;;;;;;;3.33;1.50;;;23.20;38.10;;;;;;4998056;28;20152;-68
2022/02/09 12:30:46;;;;;;;2.28;1.30;;;23.20;38.20;;;;;;4995374;28;20457;-70
2022/02/09 12:33:20;;;;;;;2.28;1.30;;;23.20;37.20;;;;;;4994382;28;20073;-67
2022/02/09 12:35:46;;;;;;;2.78;1.40;;;23.20;38.30;;;;;;4995811;28;20053;-68
2022/02/09 12:38:11;;;;;;;2.40;1.40;;;23.10;37.70;;;;;;5001693;28;20062;-63
2022/02/09 12:40:38;;;;;;;3.20;1.60;;;23.10;38.20;;;;;;4997684;28;20033;-68
2022/02/09 12:43:12;;;;;;;3.00;1.40;;;23.10;38.40;;;;;;4995427;28;20105;-68
2022/02/09 12:45:40;;;;;;;3.88;2.10;;;23.20;38.60;;;;;;4995317;28;20053;-71
2022/02/09 12:48:07;;;;;;;4.57;2.30;;;23.10;39.20;;;;;;4999586;28;21671;-68
2022/02/09 12:50:39;;;;;;;3.15;1.83;;;23.20;38.90;;;;;;4998667;28;20014;-69
2022/02/09 12:53:07;;;;;;;6.43;3.35;;;23.20;39.00;;;;;;4996376;28;20026;-70
2022/02/09 12:55:36;;;;;;;6.00;3.10;;;23.20;39.60;;;;;;4997548;28;20102;-68
2022/02/09 12:58:08;;;;;;;7.22;3.33;;;23.20;39.90;;;;;;4997119;28;20514;-64
2022/02/09 13:00:45;;;;;;;5.85;3.40;;;23.20;40.40;;;;;;4994436;28;20073;-68
2022/02/09 13:03:12;;;;;;;5.88;2.95;;;23.20;37.90;;;;;;4995842;28;20394;-72
2022/02/09 13:05:42;;;;;;;6.78;3.67;;;23.20;39.60;;;;;;4996908;28;20538;-71
2022/02/09 13:08:08;;;;;;;7.85;3.75;;;23.20;39.80;;;;;;4997186;28;20461;-67
2022/02/09 13:10:39;;;;;;;7.90;3.90;;;23.20;39.90;;;;;;4998131;28;20213;-69
2022/02/09 13:13:25;;;;;;;6.60;3.50;;;23.20;39.90;;;;;;4996684;28;20447;-67
2022/02/09 14:17:45;;;;;;;8.05;4.35;;;23.40;41.40;;;;;;5001743;28;20033;-67
2022/02/09 14:52:50;;;;;;;6.00;3.33;;;23.40;39.00;;;;;;4997589;28;20546;-68
2022/02/09 14:58:06;;;;;;;7.53;3.65;;;23.40;38.70;;;;;;4996620;28;20101;-69
2022/02/09 15:00:36;;;;;;;5.25;3.13;;;23.40;38.50;;;;;;5010167;28;20073;-68
2022/02/09 15:03:23;;;;;;;5.80;3.22;;;23.40;38.90;;;;;;4994713;28;20407;-66
2022/02/09 15:08:42;;;;;;;6.90;3.65;;;23.40;41.00;;;;;;4993369;28;20034;-64
2022/02/09 15:11:13;;;;;;;8.52;4.32;;;23.40;41.50;;;;;;4996435;28;20078;-67
2022/02/09 15:13:52;;;;;;;9.02;4.60;;;23.40;41.90;;;;;;4993983;28;20450;-71
2022/02/09 15:16:33;;;;;;;8.50;4.28;;;23.40;42.20;;;;;;5014874;28;20034;-67
2022/02/09 15:24:12;;;;;;;8.90;4.15;;;23.40;42.70;;;;;;5005360;28;20037;-70
2022/02/09 15:26:38;;;;;;;9.00;4.60;;;23.40;42.90;;;;;;5005307;28;20816;-71
2022/02/09 15:29:04;;;;;;;5.88;3.92;;;23.50;43.60;;;;;;5000316;28;20031;-71
2022/02/09 15:31:45;;;;;;;7.80;4.13;;;23.50;43.10;;;;;;5002871;28;20041;-70
2022/02/09 15:36:55;;;;;;;7.45;4.43;;;23.50;43.40;;;;;;4999809;28;20034;-67
2022/02/09 15:39:22;;;;;;;7.93;4.05;;;23.50;43.40;;;;;;5001444;28;20530;-70
2022/02/09 16:06:27;;;;;;;11.68;5.03;;;23.40;44.00;;;;;;4997904;28;20135;-66
2022/02/09 16:22:08;;;;;;;9.07;5.05;;;23.30;44.30;;;;;;4995380;28;20536;-70
2022/02/09 16:46:15;;;;;;;8.63;4.78;;;23.20;44.70;;;;;;4997214;28;20730;-70
2022/02/09 16:48:48;;;;;;;8.52;5.10;;;23.10;44.60;;;;;;4995451;28;20086;-69
2022/02/09 16:51:18;;;;;;;8.60;5.05;;;23.10;44.70;;;;;;4996448;28;20029;-69
2022/02/09 16:53:50;;;;;;;7.93;4.93;;;23.10;44.70;;;;;;4996511;28;20033;-70
2022/02/09 17:20:36;;;;;;;8.90;4.85;;;23.00;45.00;;;;;;4995641;28;20898;-70
2022/02/09 17:23:02;;;;;;;9.20;4.80;;;23.00;45.50;;;;;;4995119;28;20033;-69
2022/02/09 17:25:27;;;;;;;7.88;4.60;;;22.90;45.00;;;;;;4996759;28;20120;-68
2022/02/09 17:27:53;;;;;;;8.68;4.78;;;23.00;45.20;;;;;;5004808;28;20026;-67
2022/02/09 17:32:54;;;;;;;7.77;4.57;;;23.00;45.10;;;;;;4993134;28;20029;-69
2022/02/09 17:35:25;;;;;;;8.65;4.38;;;23.00;45.10;;;;;;4998001;28;20458;-67
2022/02/09 17:56:54;;;;;;;6.82;3.80;;;23.00;45.10;;;;;;5002092;28;20381;-66
2022/02/09 17:59:24;;;;;;;6.68;3.90;;;23.00;45.10;;;;;;4995127;28;21932;-70
2022/02/09 18:01:51;;;;;;;6.03;3.70;;;23.00;45.10;;;;;;4991131;28;20030;-70
2022/02/09 18:04:19;;;;;;;6.07;3.78;;;23.00;45.20;;;;;;5009236;28;20537;-70
2022/02/09 18:06:53;;;;;;;6.10;3.55;;;23.00;45.20;;;;;;4997032;28;20033;-67
2022/02/09 18:09:27;;;;;;;7.32;3.95;;;23.00;45.20;;;;;;4996480;28;20040;-68
2022/02/09 18:12:23;;;;;;;8.02;3.88;;;23.00;45.80;;;;;;5009453;28;20215;-70
2022/02/09 19:03:29;;;;;;;8.50;4.40;;;23.10;45.50;;;;;;5015368;28;20024;-66
2022/02/09 19:05:58;;;;;;;8.65;4.20;;;23.10;45.40;;;;;;5006968;28;20395;-67
2022/02/09 19:45:51;;;;;;;7.28;4.00;;;23.30;45.20;;;;;;4998213;28;20029;-69
2022/02/09 19:48:20;;;;;;;8.90;4.57;;;23.30;45.10;;;;;;4998125;28;20109;-68
2022/02/09 19:53:26;;;;;;;6.63;4.10;;;23.30;45.10;;;;;;4998378;28;20033;-66
2022/02/09 19:56:05;;;;;;;6.15;3.92;;;23.30;45.10;;;;;;4995543;28;20124;-71
2022/02/09 19:58:44;;;;;;;6.93;3.72;;;23.30;45.10;;;;;;4995256;28;20034;-72
2022/02/09 20:01:14;;;;;;;6.93;4.03;;;23.30;45.10;;;;;;4999506;28;20587;-68
2022/02/09 20:03:40;;;;;;;6.10;3.45;;;23.30;45.10;;;;;;5005365;28;20372;-72
2022/02/09 20:06:09;;;;;;;7.05;3.97;;;23.30;45.00;;;;;;4998751;28;20378;-65
2022/02/09 20:08:37;;;;;;;8.95;3.80;;;23.30;45.00;;;;;;5003491;28;20026;-68
2022/02/09 20:11:04;;;;;;;6.20;3.83;;;23.20;44.90;;;;;;4999679;28;20115;-67
2022/02/09 20:13:29;;;;;;;6.82;3.60;;;23.30;44.90;;;;;;4996796;28;20025;-68
2022/02/09 20:15:55;;;;;;;8.15;3.60;;;23.20;44.90;;;;;;4996856;28;20506;-66
2022/02/09 20:18:21;;;;;;;6.15;3.50;;;23.20;44.90;;;;;;4996738;28;20446;-64
2022/02/09 20:20:47;;;;;;;5.63;3.50;;;23.20;44.90;;;;;;4998240;28;20041;-69
2022/02/09 20:23:13;;;;;;;6.40;3.30;;;23.20;44.90;;;;;;4995359;28;20030;-67
2022/02/09 20:25:38;;;;;;;6.20;3.40;;;23.20;44.90;;;;;;5012383;28;20437;-70
2022/02/09 20:28:06;;;;;;;6.78;3.60;;;23.20;45.00;;;;;;4995892;28;20110;-71
2022/02/09 20:30:40;;;;;;;6.15;3.50;;;23.20;45.00;;;;;;4992621;28;20149;-71
2022/02/09 20:33:11;;;;;;;5.70;3.20;;;23.20;45.00;;;;;;4999040;28;20044;-69
2022/02/09 20:35:37;;;;;;;5.22;3.30;;;23.20;45.00;;;;;;4998097;28;20124;-70
2022/02/09 20:38:03;;;;;;;5.32;3.47;;;23.10;45.00;;;;;;4998539;28;20038;-69
2022/02/09 20:40:46;;;;;;;6.60;3.40;;;23.10;45.10;;;;;;4999185;28;20045;-69
2022/02/09 20:43:13;;;;;;;6.60;3.03;;;23.10;45.10;;;;;;4998004;28;20048;-65
2022/02/09 20:45:47;;;;;;;5.63;3.17;;;23.10;45.10;;;;;;4998217;28;20022;-68
2022/02/09 20:48:16;;;;;;;5.03;2.83;;;23.10;45.20;;;;;;4998581;28;20031;-68
2022/02/09 20:50:43;;;;;;;5.95;3.28;;;23.10;45.30;;;;;;4996457;28;20100;-70
2022/02/09 20:53:09;;;;;;;5.78;3.25;;;23.10;45.30;;;;;;4996866;28;20581;-72
2022/02/09 20:55:35;;;;;;;5.38;3.10;;;23.10;45.30;;;;;;4994819;28;20034;-68
2022/02/09 20:58:02;;;;;;;6.30;3.25;;;23.10;45.40;;;;;;4999433;28;20037;-70
2022/02/09 21:00:53;;;;;;;6.32;3.42;;;23.00;45.40;;;;;;5001395;28;20119;-68
2022/02/09 21:13:01;;;;;;;6.30;3.25;;;23.00;45.40;;;;;;4993068;28;20096;-67
2022/02/09 21:26:22;;;;;;;5.03;3.25;;;23.00;45.50;;;;;;4993736;28;20026;-68
2022/02/09 21:55:12;;;;;;;4.72;2.80;;;22.80;45.70;;;;;;4992270;28;20030;-68
2022/02/09 21:57:53;;;;;;;4.65;2.63;;;22.80;45.70;;;;;;4991604;28;20498;-68
2022/02/09 22:27:14;;;;;;;4.03;2.58;;;22.60;45.90;;;;;;4999233;28;20036;-68
2022/02/09 22:48:58;;;;;;;4.90;2.60;;;22.50;46.00;;;;;;4997141;28;20026;-65
2022/02/09 22:56:35;;;;;;;4.80;2.47;;;22.50;46.10;;;;;;4997205;28;20106;-67
2022/02/09 22:59:05;;;;;;;3.28;2.10;;;22.50;46.10;;;;;;4994983;28;20116;-68
2022/02/09 23:04:53;;;;;;;3.97;2.38;;;22.40;46.00;;;;;;4996194;28;19939;-68
2022/02/09 23:07:06;;;;;;;4.60;2.60;;;22.50;46.10;;;;;;4997616;28;20039;-68
2022/02/09 23:12:25;;;;;;;4.07;2.40;;;22.40;46.10;;;;;;4996591;28;20045;-66
2022/02/09 23:55:57;;;;;;;3.38;2.00;;;22.20;46.30;;;;;;4997357;28;20034;-67
